Time;durP1;ratioP1;P1;durP2;ratioP2;P2;SDS_P1;SDS_P2;PMS_P1;PMS_P2;Temp;Humidity;BMP_temperature;BMP_pressure;BME280_temperature;BME280_humidity;BME280_pressure;Samples;Min_cycle;Max_cycle;Signal;HPM_P1;HPM_P2
2023/05/19 00:01:15;;;;;;;;;;;;;;;;;;5108436;28;20014;-54
2023/05/19 00:03:41;;;;;;;;;;;;;;;;;;5105562;28;19912;-55
2023/05/19 00:06:07;;;;;;;;;;;;;;;;;;5089811;28;19912;-55
2023/05/19 00:08:33;;;;;;;;;;;;;;;;;;5109141;28;19977;-54
2023/05/19 00:10:59;;;;;;;;;;;;;;;;;;5103986;28;21149;-54
2023/05/19 00:13:25;;;;;;;;;;;;;;;;;;5102612;28;19947;-54
2023/05/19 00:15:51;;;;;;;;;;;;;;;;;;5108211;28;19958;-54
2023/05/19 00:18:17;;;;;;;;;;;;;;;;;;5112596;28;20337;-55
2023/05/19 00:20:43;;;;;;;;;;;;;;;;;;5105792;28;20346;-55
2023/05/19 00:23:09;;;;;;;;;;;;;;;;;;5104506;28;19962;-54
2023/05/19 00:25:35;;;;;;;;;;;;;;;;;;5104589;28;19907;-54
2023/05/19 00:28:01;;;;;;;;;;;;;;;;;;5090514;28;19907;-54
2023/05/19 00:30:28;;;;;;;;;;;;;;;;;;5106686;28;19915;-55
2023/05/19 00:32:54;;;;;;;;;;;;;;;;;;5106927;28;20403;-54
2023/05/19 00:35:20;;;;;;;;;;;;;;;;;;5106073;28;21294;-55
2023/05/19 00:37:46;;;;;;;;;;;;;;;;;;5106775;28;19908;-55
2023/05/19 00:40:12;;;;;;;;;;;;;;;;;;5103217;28;19916;-55
2023/05/19 00:42:38;;;;;;;;;;;;;;;;;;5112329;28;19911;-55
2023/05/19 00:45:04;;;;;;;;;;;;;;;;;;5106519;28;20442;-54
2023/05/19 00:47:30;;;;;;;;;;;;;;;;;;5104618;28;20397;-54
2023/05/19 00:49:56;;;;;;;;;;;;;;;;;;5105183;28;19943;-54
2023/05/19 00:52:22;;;;;;;;;;;;;;;;;;5104153;28;19947;-55
2023/05/19 00:54:48;;;;;;;;;;;;;;;;;;5103640;28;20330;-55
2023/05/19 00:57:14;;;;;;;;;;;;;;;;;;5106951;28;19946;-54
2023/05/19 00:59:40;;;;;;;;;;;;;;;;;;5105309;28;19923;-54
2023/05/19 01:02:06;;;;;;;;;;;;;;;;;;5105980;28;19938;-54
2023/05/19 01:04:33;;;;;;;;;;;;;;;;;;5105620;28;19985;-55
2023/05/19 01:06:59;;;;;;;;;;;;;;;;;;5110322;28;19943;-55
2023/05/19 01:09:25;;;;;;;;;;;;;;;;;;5108078;28;19947;-54
2023/05/19 01:11:51;;;;;;;;;;;;;;;;;;5109752;28;19915;-54
2023/05/19 01:14:17;;;;;;;;;;;;;;;;;;5107633;28;19951;-55
2023/05/19 01:16:43;;;;;;;;;;;;;;;;;;5107183;27;19939;-54
2023/05/19 01:19:09;;;;;;;;;;;;;;;;;;5107038;28;19965;-54
2023/05/19 01:21:35;;;;;;;;;;;;;;;;;;5106881;28;20307;-55
2023/05/19 01:24:02;;;;;;;;;;;;;;;;;;5110434;28;20010;-54
2023/05/19 01:26:28;;;;;;;;;;;;;;;;;;5108867;28;19912;-54
2023/05/19 01:28:54;;;;;;;;;;;;;;;;;;5109254;28;19950;-54
2023/05/19 01:31:22;;;;;;;;;;;;;;;;;;5107798;28;20011;-54
2023/05/19 01:33:48;;;;;;;;;;;;;;;;;;5107961;28;19919;-54
2023/05/19 01:36:14;;;;;;;;;;;;;;;;;;5104506;27;19954;-54
2023/05/19 01:38:40;;;;;;;;;;;;;;;;;;5107293;28;20034;-55
2023/05/19 01:41:06;;;;;;;;;;;;;;;;;;5110009;27;20435;-55
2023/05/19 01:43:32;;;;;;;;;;;;;;;;;;5106841;28;19930;-54
2023/05/19 01:45:58;;;;;;;;;;;;;;;;;;5113055;27;19994;-54
2023/05/19 01:48:24;;;;;;;;;;;;;;;;;;5108397;27;19923;-54
2023/05/19 01:50:50;;;;;;;;;;;;;;;;;;5109002;28;19951;-54
2023/05/19 01:53:16;;;;;;;;;;;;;;;;;;5110349;28;19953;-54
2023/05/19 01:55:42;;;;;;;;;;;;;;;;;;5108191;27;20294;-55
2023/05/19 01:58:08;;;;;;;;;;;;;;;;;;5110343;27;19908;-55
2023/05/19 02:00:34;;;;;;;;;;;;;;;;;;5110965;27;20335;-55
2023/05/19 02:03:00;;;;;;;;;;;;;;;;;;5109044;28;19962;-54
2023/05/19 02:05:28;;;;;;;;;;;;;;;;;;5108629;28;19961;-54
2023/05/19 02:07:54;;;;;;;;;;;;;;;;;;5108806;28;19912;-55
2023/05/19 02:10:20;;;;;;;;;;;;;;;;;;5106555;28;19985;-54
2023/05/19 02:12:46;;;;;;;;;;;;;;;;;;5109825;27;19939;-55
2023/05/19 02:15:12;;;;;;;;;;;;;;;;;;5106643;28;19953;-55
2023/05/19 02:17:40;;;;;;;;;;;;;;;;;;5107101;27;19954;-54
2023/05/19 02:20:06;;;;;;;;;;;;;;;;;;5092699;28;20351;-54
2023/05/19 02:22:32;;;;;;;;;;;;;;;;;;5109110;27;19943;-54
2023/05/19 02:24:58;;;;;;;;;;;;;;;;;;5107718;28;19916;-55
2023/05/19 02:27:25;;;;;;;;;;;;;;;;;;5110496;27;20002;-54
2023/05/19 02:29:51;;;;;;;;;;;;;;;;;;5108051;28;19915;-54
2023/05/19 02:32:16;;;;;;;;;;;;;;;;;;5108523;27;19947;-53
2023/05/19 02:34:44;;;;;;;;;;;;;;;;;;5102650;28;20430;-54
2023/05/19 02:37:11;;;;;;;;;;;;;;;;;;5107276;28;19919;-55
2023/05/19 02:39:37;;;;;;;;;;;;;;;;;;5107937;28;19935;-54
2023/05/19 02:42:03;;;;;;;;;;;;;;;;;;5110063;27;19935;-54
2023/05/19 02:44:29;;;;;;;;;;;;;;;;;;5104490;27;19951;-53
2023/05/19 02:46:55;;;;;;;;;;;;;;;;;;5109489;27;20004;-54
2023/05/19 02:49:21;;;;;;;;;;;;;;;;;;5108615;27;19911;-54
2023/05/19 02:51:46;;;;;;;;;;;;;;;;;;5111873;27;19992;-55
2023/05/19 02:54:12;;;;;;;;;;;;;;;;;;5114396;27;19916;-54
2023/05/19 02:56:38;;;;;;;;;;;;;;;;;;5110126;27;20000;-54
2023/05/19 02:59:05;;;;;;;;;;;;;;;;;;5108496;28;19946;-54
2023/05/19 03:01:36;;;;;;;;;;;;;;;;;;5106213;28;19912;-54
2023/05/19 03:04:02;;;;;;;;;;;;;;;;;;5107563;28;19985;-53
2023/05/19 03:06:28;;;;;;;;;;;;;;;;;;5106385;28;20018;-54
2023/05/19 03:08:54;;;;;;;;;;;;;;;;;;5108206;28;20023;-53
2023/05/19 03:11:22;;;;;;;;;;;;;;;;;;5108879;28;20305;-53
2023/05/19 03:13:47;;;;;;;;;;;;;;;;;;5106174;28;19951;-54
2023/05/19 03:16:13;;;;;;;;;;;;;;;;;;5106264;28;19965;-54
2023/05/19 03:18:40;;;;;;;;;;;;;;;;;;5105733;28;20049;-55
2023/05/19 03:21:06;;;;;;;;;;;;;;;;;;5103835;28;20433;-54
2023/05/19 03:23:32;;;;;;;;;;;;;;;;;;5103846;28;19911;-54
2023/05/19 03:25:58;;;;;;;;;;;;;;;;;;5107955;28;19952;-54
2023/05/19 03:28:26;;;;;;;;;;;;;;;;;;5105082;28;19929;-54
2023/05/19 03:30:52;;;;;;;;;;;;;;;;;;5105419;28;19943;-54
2023/05/19 03:33:18;;;;;;;;;;;;;;;;;;5106960;28;20327;-54
2023/05/19 03:35:44;;;;;;;;;;;;;;;;;;5090022;28;19911;-53
2023/05/19 03:38:10;;;;;;;;;;;;;;;;;;5105769;28;19907;-55
2023/05/19 03:40:36;;;;;;;;;;;;;;;;;;5104889;27;19915;-54
2023/05/19 03:43:02;;;;;;;;;;;;;;;;;;5102048;27;19911;-55
2023/05/19 03:45:28;;;;;;;;;;;;;;;;;;5105988;28;19943;-55
2023/05/19 03:47:53;;;;;;;;;;;;;;;;;;5103287;28;19985;-54
2023/05/19 03:50:20;;;;;;;;;;;;;;;;;;5108759;27;20335;-55
2023/05/19 03:52:46;;;;;;;;;;;;;;;;;;5109474;28;19911;-55
2023/05/19 03:55:18;;;;;;;;;;;;;;;;;;5107775;28;19908;-55
2023/05/19 03:57:44;;;;;;;;;;;;;;;;;;5110455;27;20201;-59
2023/05/19 04:00:11;;;;;;;;;;;;;;;;;;5100346;28;20295;-55
2023/05/19 04:02:37;;;;;;;;;;;;;;;;;;5108808;28;19918;-55
2023/05/19 04:05:06;;;;;;;;;;;;;;;;;;5106925;28;19911;-55
2023/05/19 04:07:31;;;;;;;;;;;;;;;;;;5106693;28;19916;-54
2023/05/19 04:09:57;;;;;;;;;;;;;;;;;;5104686;28;19907;-55
2023/05/19 04:12:23;;;;;;;;;;;;;;;;;;5105550;28;20256;-55
2023/05/19 04:14:49;;;;;;;;;;;;;;;;;;5110200;28;20448;-54
2023/05/19 04:17:15;;;;;;;;;;;;;;;;;;5114040;28;20382;-54
2023/05/19 04:19:41;;;;;;;;;;;;;;;;;;5106662;28;19916;-55
2023/05/19 04:22:07;;;;;;;;;;;;;;;;;;5107601;28;20287;-58
2023/05/19 04:24:33;;;;;;;;;;;;;;;;;;5104259;28;20329;-55
2023/05/19 04:27:01;;;;;;;;;;;;;;;;;;5106856;28;19935;-55
2023/05/19 04:29:28;;;;;;;;;;;;;;;;;;5100599;28;19989;-55
2023/05/19 04:31:54;;;;;;;;;;;;;;;;;;5107014;28;19956;-55
2023/05/19 04:34:20;;;;;;;;;;;;;;;;;;5104778;28;19914;-55
2023/05/19 04:36:46;;;;;;;;;;;;;;;;;;5105486;28;20358;-55
2023/05/19 04:39:13;;;;;;;;;;;;;;;;;;5107239;28;20355;-55
2023/05/19 04:41:39;;;;;;;;;;;;;;;;;;5110152;27;20306;-55
2023/05/19 04:44:06;;;;;;;;;;;;;;;;;;5110844;28;19924;-55
2023/05/19 04:46:32;;;;;;;;;;;;;;;;;;5094260;27;20272;-55
2023/05/19 04:49:00;;;;;;;;;;;;;;;;;;5109405;28;19912;-55
2023/05/19 04:51:30;;;;;;;;;;;;;;;;;;5111996;27;19907;-55
2023/05/19 04:53:56;;;;;;;;;;;;;;;;;;5108300;27;20535;-55
2023/05/19 04:56:22;;;;;;;;;;;;;;;;;;5114636;27;20003;-55
2023/05/19 04:58:48;;;;;;;;;;;;;;;;;;5111458;27;19918;-55
2023/05/19 05:01:14;;;;;;;;;;;;;;;;;;5107103;27;20354;-55
2023/05/19 05:03:40;;;;;;;;;;;;;;;;;;5104785;27;20347;-55
2023/05/19 05:06:07;;;;;;;;;;;;;;;;;;5108148;28;19918;-55
2023/05/19 05:08:33;;;;;;;;;;;;;;;;;;5109014;27;20519;-55
2023/05/19 05:10:59;;;;;;;;;;;;;;;;;;5110010;28;20437;-55
2023/05/19 05:13:25;;;;;;;;;;;;;;;;;;5109595;28;19918;-55
2023/05/19 05:15:51;;;;;;;;;;;;;;;;;;5109334;27;19943;-55
2023/05/19 05:18:17;;;;;;;;;;;;;;;;;;5103784;27;19977;-55
2023/05/19 05:20:43;;;;;;;;;;;;;;;;;;5107831;27;19918;-55
2023/05/19 05:23:09;;;;;;;;;;;;;;;;;;5109035;27;19919;-55
2023/05/19 05:25:35;;;;;;;;;;;;;;;;;;5091370;28;19912;-55
2023/05/19 05:28:03;;;;;;;;;;;;;;;;;;5100303;28;20410;-55
2023/05/19 05:30:29;;;;;;;;;;;;;;;;;;5107364;28;19911;-55
2023/05/19 05:32:56;;;;;;;;;;;;;;;;;;5109509;27;19922;-55
2023/05/19 05:35:22;;;;;;;;;;;;;;;;;;5101217;28;19957;-55
2023/05/19 05:37:48;;;;;;;;;;;;;;;;;;5109781;28;19964;-55
2023/05/19 05:40:14;;;;;;;;;;;;;;;;;;5106638;27;19998;-55
2023/05/19 05:42:40;;;;;;;;;;;;;;;;;;5108646;27;19930;-55
2023/05/19 05:45:06;;;;;;;;;;;;;;;;;;5111742;27;20501;-55
2023/05/19 05:47:32;;;;;;;;;;;;;;;;;;5107934;28;19939;-55
2023/05/19 05:49:58;;;;;;;;;;;;;;;;;;5105782;27;20386;-55
2023/05/19 05:52:24;;;;;;;;;;;;;;;;;;5108515;27;19933;-55
2023/05/19 05:54:50;;;;;;;;;;;;;;;;;;5106390;27;19957;-55
2023/05/19 05:57:16;;;;;;;;;;;;;;;;;;5106535;28;19952;-55
2023/05/19 05:59:44;;;;;;;;;;;;;;;;;;5102688;28;19965;-55
2023/05/19 06:02:10;;;;;;;;;;;;;;;;;;5104479;27;20385;-55
2023/05/19 06:04:36;;;;;;;;;;;;;;;;;;5106893;28;19967;-55
2023/05/19 06:07:01;;;;;;;;;;;;;;;;;;5110156;28;20380;-55
2023/05/19 06:09:29;;;;;;;;;;;;;;;;;;5109047;28;19943;-54
2023/05/19 06:11:54;;;;;;;;;;;;;;;;;;5104871;28;19912;-55
2023/05/19 06:14:21;;;;;;;;;;;;;;;;;;5107137;28;20034;-55
2023/05/19 06:16:47;;;;;;;;;;;;;;;;;;5088618;28;20121;-55
2023/05/19 06:19:13;;;;;;;;;;;;;;;;;;5105082;28;20022;-55
2023/05/19 06:21:41;;;;;;;;;;;;;;;;;;5100041;28;20004;-55
2023/05/19 06:24:07;;;;;;;;;;;;;;;;;;5113842;27;20014;-55
2023/05/19 06:26:33;;;;;;;;;;;;;;;;;;5102992;27;20349;-55
2023/05/19 06:28:59;;;;;;;;;;;;;;;;;;5107056;27;20391;-56
2023/05/19 06:31:26;;;;;;;;;;;;;;;;;;5111903;27;19919;-55
2023/05/19 06:33:52;;;;;;;;;;;;;;;;;;5101546;28;20038;-55
2023/05/19 06:36:18;;;;;;;;;;;;;;;;;;5108291;27;19911;-55
2023/05/19 06:38:44;;;;;;;;;;;;;;;;;;5106318;27;19943;-55
2023/05/19 06:41:10;;;;;;;;;;;;;;;;;;5113449;27;20371;-54
2023/05/19 06:43:36;;;;;;;;;;;;;;;;;;5108830;28;19947;-55
2023/05/19 06:46:02;;;;;;;;;;;;;;;;;;5109332;27;19994;-55
2023/05/19 06:48:28;;;;;;;;;;;;;;;;;;5104006;27;19948;-55
2023/05/19 06:50:54;;;;;;;;;;;;;;;;;;5090247;27;20003;-56
2023/05/19 06:53:20;;;;;;;;;;;;;;;;;;5102696;28;19931;-55
2023/05/19 06:55:49;;;;;;;;;;;;;;;;;;5088101;28;19908;-54
2023/05/19 06:58:15;;;;;;;;;;;;;;;;;;5111227;27;20022;-55
2023/05/19 07:00:42;;;;;;;;;;;;;;;;;;5103990;27;20391;-56
2023/05/19 07:03:07;;;;;;;;;;;;;;;;;;5108256;27;19956;-56
2023/05/19 07:05:33;;;;;;;;;;;;;;;;;;5106472;27;19915;-55
2023/05/19 07:08:00;;;;;;;;;;;;;;;;;;5104126;27;19912;-55
2023/05/19 07:10:26;;;;;;;;;;;;;;;;;;5101618;27;19916;-55
2023/05/19 07:12:52;;;;;;;;;;;;;;;;;;5105345;27;19958;-55
2023/05/19 07:15:18;;;;;;;;;;;;;;;;;;5103703;27;19915;-55
2023/05/19 07:17:44;;;;;;;;;;;;;;;;;;5106093;28;19990;-55
2023/05/19 07:20:10;;;;;;;;;;;;;;;;;;5103429;27;19951;-55
2023/05/19 07:22:37;;;;;;;;;;;;;;;;;;5108380;27;19911;-55
2023/05/19 07:25:03;;;;;;;;;;;;;;;;;;5102633;27;20019;-55
2023/05/19 07:27:29;;;;;;;;;;;;;;;;;;5105376;27;19961;-55
2023/05/19 07:29:55;;;;;;;;;;;;;;;;;;5103295;27;19958;-55
2023/05/19 07:32:21;;;;;;;;;;;;;;;;;;5108216;27;19911;-55
2023/05/19 07:34:47;;;;;;;;;;;;;;;;;;5100903;28;20405;-55
2023/05/19 07:37:13;;;;;;;;;;;;;;;;;;5110929;27;19955;-55
2023/05/19 08:37:20;;;;;;;;;;;;;;;;;;5096288;28;19977;-54
2023/05/19 08:39:46;;;;;;;;;;;;;;;;;;5091548;28;19954;-56
2023/05/19 08:42:12;;;;;;;;;;;;;;;;;;5095727;28;19912;-60
2023/05/19 08:44:38;;;;;;;;;;;;;;;;;;5087943;28;19947;-56
2023/05/19 08:55:20;;;;;;;;;;;;;;;;;;5092205;28;19935;-53
2023/05/19 08:57:46;;;;;;;;;;;;;;;;;;5091267;28;19991;-54
2023/05/19 09:00:12;;;;;;;;;;;;;;;;;;5091576;28;19951;-54
2023/05/19 09:02:38;;;;;;;;;;;;;;;;;;5087519;28;20292;-54
2023/05/19 09:05:04;;;;;;;;;;;;;;;;;;5086065;28;19961;-55
2023/05/19 09:15:45;;;;;;;;;;;;;;;;;;5088679;28;19954;-54
2023/05/19 09:18:11;;;;;;;;;;;;;;;;;;5088533;28;19951;-55
2023/05/19 09:28:29;;;;;;;;;;;;;;;;;;5040222;28;19957;-54
2023/05/19 09:30:55;;;;;;;;;;;;;;;;;;5046310;28;20279;-54
2023/05/19 09:33:21;;;;;;;;;;;;;;;;;;5049469;28;19948;-54
2023/05/19 09:35:47;;;;;;;;;;;;;;;;;;5049244;28;19949;-53
2023/05/19 09:38:13;;;;;;;;;;;;;;;;;;5049452;28;19958;-58
2023/05/19 09:40:38;;;;;;;;;;;;;;;;;;5042607;28;19955;-53
2023/05/19 09:43:04;;;;;;;;;;;;;;;;;;5045771;28;19963;-53
2023/05/19 09:45:31;;;;;;;;;;;;;;;;;;5047674;28;20348;-53
2023/05/19 09:47:57;;;;;;;;;;;;;;;;;;5048852;28;19913;-54
2023/05/19 09:50:23;;;;;;;;;;;;;;;;;;5044854;28;19916;-53
2023/05/19 09:52:49;;;;;;;;;;;;;;;;;;5048729;28;19966;-53
2023/05/19 09:55:16;;;;;;;;;;;;;;;;;;5045712;28;19944;-54
2023/05/19 09:57:43;;;;;;;;;;;;;;;;;;5047642;28;19939;-55
2023/05/19 10:00:18;;;;;;;;;;;;;;;;;;5047445;28;19977;-53
2023/05/19 10:02:44;;;;;;;;;;;;;;;;;;5047869;28;20175;-53
2023/05/19 10:05:10;;;;;;;;;;;;;;;;;;5043051;28;20264;-54
2023/05/19 10:07:36;;;;;;;;;;;;;;;;;;5045543;28;19967;-53
2023/05/19 10:10:02;;;;;;;;;;;;;;;;;;5053342;28;19948;-53
2023/05/19 10:12:28;;;;;;;;;;;;;;;;;;5048401;28;20355;-56
2023/05/19 10:14:54;;;;;;;;;;;;;;;;;;5046924;28;19940;-53
2023/05/19 10:17:20;;;;;;;;;;;;;;;;;;5048971;28;19916;-53
2023/05/19 10:19:46;;;;;;;;;;;;;;;;;;5045747;28;19991;-54
2023/05/19 10:22:12;;;;;;;;;;;;;;;;;;5043099;28;19917;-54
2023/05/19 10:24:38;;;;;;;;;;;;;;;;;;5045016;28;19955;-54
2023/05/19 10:27:04;;;;;;;;;;;;;;;;;;5046095;28;19979;-54
2023/05/19 10:29:30;;;;;;;;;;;;;;;;;;5044264;28;20096;-55
2023/05/19 10:31:56;;;;;;;;;;;;;;;;;;5044379;28;19952;-56
2023/05/19 10:34:22;;;;;;;;;;;;;;;;;;5044249;28;20369;-56
2023/05/19 10:36:48;;;;;;;;;;;;;;;;;;5043519;28;19916;-56
2023/05/19 10:39:14;;;;;;;;;;;;;;;;;;5046079;28;19936;-56
2023/05/19 10:41:40;;;;;;;;;;;;;;;;;;5043276;28;19944;-56
2023/05/19 10:44:05;;;;;;;;;;;;;;;;;;5046983;28;19923;-55
2023/05/19 10:46:31;;;;;;;;;;;;;;;;;;5044415;28;19940;-55
2023/05/19 10:48:57;;;;;;;;;;;;;;;;;;5043537;28;19944;-55
2023/05/19 10:51:23;;;;;;;;;;;;;;;;;;5044754;28;20003;-55
2023/05/19 10:53:49;;;;;;;;;;;;;;;;;;5043869;28;20046;-56
2023/05/19 10:56:15;;;;;;;;;;;;;;;;;;5044292;28;20343;-55
2023/05/19 10:58:41;;;;;;;;;;;;;;;;;;5044128;28;20007;-55
2023/05/19 11:01:08;;;;;;;;;;;;;;;;;;5043061;28;19974;-55
2023/05/19 11:03:34;;;;;;;;;;;;;;;;;;5041840;28;19985;-55
2023/05/19 11:06:00;;;;;;;;;;;;;;;;;;5039116;28;19913;-55
2023/05/19 11:08:26;;;;;;;;;;;;;;;;;;5034736;28;19970;-55
2023/05/19 11:10:52;;;;;;;;;;;;;;;;;;5038526;28;19951;-55
2023/05/19 11:13:18;;;;;;;;;;;;;;;;;;5043452;28;19948;-55
2023/05/19 11:15:44;;;;;;;;;;;;;;;;;;5043051;28;19948;-57
2023/05/19 11:18:12;;;;;;;;;;;;;;;;;;5044911;28;19943;-58
2023/05/19 11:20:38;;;;;;;;;;;;;;;;;;5040316;28;19909;-58
2023/05/19 11:23:04;;;;;;;;;;;;;;;;;;5040047;28;19920;-60
2023/05/19 11:25:30;;;;;;;;;;;;;;;;;;5037378;28;20007;-59
2023/05/19 11:27:56;;;;;;;;;;;;;;;;;;5041778;28;20513;-59
2023/05/19 11:30:22;;;;;;;;;;;;;;;;;;5040696;28;19966;-59
2023/05/19 11:32:48;;;;;;;;;;;;;;;;;;5043951;28;19948;-59
2023/05/19 11:35:15;;;;;;;;;;;;;;;;;;5043118;28;19956;-59
2023/05/19 11:37:41;;;;;;;;;;;;;;;;;;5039555;28;19912;-58
2023/05/19 11:40:07;;;;;;;;;;;;;;;;;;5044121;28;19923;-58
2023/05/19 11:42:33;;;;;;;;;;;;;;;;;;5035944;28;19916;-59
2023/05/19 11:44:59;;;;;;;;;;;;;;;;;;5038529;28;19917;-61
2023/05/19 11:47:25;;;;;;;;;;;;;;;;;;5044755;28;19991;-60
2023/05/19 11:49:51;;;;;;;;;;;;;;;;;;5043092;28;19917;-60
2023/05/19 11:52:17;;;;;;;;;;;;;;;;;;5042859;28;20406;-60
2023/05/19 11:54:43;;;;;;;;;;;;;;;;;;5039728;28;20478;-60
2023/05/19 11:57:09;;;;;;;;;;;;;;;;;;5043773;28;20350;-60
2023/05/19 11:59:36;;;;;;;;;;;;;;;;;;5043278;28;19912;-60
2023/05/19 12:02:04;;;;;;;;;;;;;;;;;;5042176;28;19909;-63
2023/05/19 12:04:30;;;;;;;;;;;;;;;;;;5043713;28;20388;-63
2023/05/19 12:06:56;;;;;;;;;;;;;;;;;;5044044;28;19948;-63
2023/05/19 12:09:25;;;;;;;;;;;;;;;;;;5042612;28;19958;-62
2023/05/19 12:11:51;;;;;;;;;;;;;;;;;;5042181;28;20450;-62
2023/05/19 12:14:17;;;;;;;;;;;;;;;;;;5044860;28;19913;-61
2023/05/19 12:16:43;;;;;;;;;;;;;;;;;;5043864;28;20436;-61
2023/05/19 12:19:09;;;;;;;;;;;;;;;;;;5043050;28;20057;-61
2023/05/19 12:21:35;;;;;;;;;;;;;;;;;;5038416;28;19992;-59
2023/05/19 12:24:01;;;;;;;;;;;;;;;;;;5038689;28;20282;-58
2023/05/19 12:26:27;;;;;;;;;;;;;;;;;;5035966;28;19924;-62
2023/05/19 12:28:53;;;;;;;;;;;;;;;;;;5042362;28;20047;-62
2023/05/19 12:31:19;;;;;;;;;;;;;;;;;;5037086;28;19955;-62
2023/05/19 12:33:46;;;;;;;;;;;;;;;;;;5039887;28;19967;-58
2023/05/19 12:36:12;;;;;;;;;;;;;;;;;;5038721;28;19909;-60
2023/05/19 12:38:38;;;;;;;;;;;;;;;;;;5038319;28;19909;-60
2023/05/19 12:41:05;;;;;;;;;;;;;;;;;;5038243;28;19923;-59
2023/05/19 12:43:32;;;;;;;;;;;;;;;;;;5040636;28;19913;-62
2023/05/19 12:45:58;;;;;;;;;;;;;;;;;;5039443;28;19913;-62
2023/05/19 12:48:24;;;;;;;;;;;;;;;;;;5040355;28;19991;-60
2023/05/19 12:50:49;;;;;;;;;;;;;;;;;;5042332;28;20003;-62
2023/05/19 12:53:15;;;;;;;;;;;;;;;;;;5043007;28;19952;-60
2023/05/19 12:55:41;;;;;;;;;;;;;;;;;;5042123;28;19947;-60
2023/05/19 12:58:07;;;;;;;;;;;;;;;;;;5044143;28;19913;-60
2023/05/19 13:00:34;;;;;;;;;;;;;;;;;;5042097;28;19951;-60
2023/05/19 13:03:00;;;;;;;;;;;;;;;;;;5044412;28;20381;-60
2023/05/19 13:05:27;;;;;;;;;;;;;;;;;;5045317;28;21103;-59
2023/05/19 13:07:52;;;;;;;;;;;;;;;;;;5042293;28;20374;-60
2023/05/19 13:10:18;;;;;;;;;;;;;;;;;;5044620;28;19956;-59
2023/05/19 13:12:44;;;;;;;;;;;;;;;;;;5042324;28;19995;-61
2023/05/19 13:15:10;;;;;;;;;;;;;;;;;;5048144;28;20021;-60
2023/05/19 13:17:36;;;;;;;;;;;;;;;;;;5048482;28;19951;-60
2023/05/19 13:20:03;;;;;;;;;;;;;;;;;;5048745;28;19960;-60
2023/05/19 13:22:29;;;;;;;;;;;;;;;;;;5046921;28;19916;-59
2023/05/19 13:24:57;;;;;;;;;;;;;;;;;;5047523;28;19955;-58
2023/05/19 13:27:23;;;;;;;;;;;;;;;;;;5047028;28;19951;-57
2023/05/19 13:29:50;;;;;;;;;;;;;;;;;;5046953;28;20334;-58
2023/05/19 13:32:16;;;;;;;;;;;;;;;;;;5047811;28;19912;-58
2023/05/19 13:34:42;;;;;;;;;;;;;;;;;;5047562;28;19948;-58
2023/05/19 13:37:08;;;;;;;;;;;;;;;;;;5048322;28;19958;-58
2023/05/19 13:39:34;;;;;;;;;;;;;;;;;;5043414;28;19931;-58
2023/05/19 13:42:00;;;;;;;;;;;;;;;;;;5047126;28;20358;-59
2023/05/19 13:44:26;;;;;;;;;;;;;;;;;;5028990;28;19924;-60
2023/05/19 13:46:52;;;;;;;;;;;;;;;;;;5041739;28;19953;-58
2023/05/19 13:49:18;;;;;;;;;;;;;;;;;;5047157;28;19955;-58
2023/05/19 13:51:44;;;;;;;;;;;;;;;;;;5046117;28;20023;-58
2023/05/19 13:54:10;;;;;;;;;;;;;;;;;;5047061;28;19963;-58
2023/05/19 13:56:36;;;;;;;;;;;;;;;;;;5043517;28;19920;-58
2023/05/19 13:59:02;;;;;;;;;;;;;;;;;;5042514;28;19959;-59
2023/05/19 14:01:28;;;;;;;;;;;;;;;;;;5045186;28;19954;-60
2023/05/19 14:03:55;;;;;;;;;;;;;;;;;;5050120;28;20008;-59
2023/05/19 14:06:21;;;;;;;;;;;;;;;;;;5047659;28;19916;-59
2023/05/19 14:08:47;;;;;;;;;;;;;;;;;;5049188;28;19921;-59
2023/05/19 14:11:13;;;;;;;;;;;;;;;;;;5043180;28;20325;-58
2023/05/19 14:13:39;;;;;;;;;;;;;;;;;;5049357;28;19912;-59
2023/05/19 14:16:06;;;;;;;;;;;;;;;;;;5048227;28;19981;-59
2023/05/19 14:18:32;;;;;;;;;;;;;;;;;;5049767;28;19920;-59
2023/05/19 14:20:58;;;;;;;;;;;;;;;;;;5046203;28;19908;-59
2023/05/19 14:23:24;;;;;;;;;;;;;;;;;;5048113;28;19982;-59
2023/05/19 14:25:50;;;;;;;;;;;;;;;;;;5045120;28;19952;-59
2023/05/19 14:28:15;;;;;;;;;;;;;;;;;;5047908;28;20345;-58
2023/05/19 14:30:42;;;;;;;;;;;;;;;;;;5042381;28;19948;-59
2023/05/19 14:33:08;;;;;;;;;;;;;;;;;;5047695;28;19935;-59
2023/05/19 14:35:35;;;;;;;;;;;;;;;;;;5043508;28;20019;-59
2023/05/19 14:38:01;;;;;;;;;;;;;;;;;;5040404;28;20054;-60
2023/05/19 14:40:27;;;;;;;;;;;;;;;;;;5033257;28;19913;-58
2023/05/19 14:42:54;;;;;;;;;;;;;;;;;;5039949;28;19913;-60
2023/05/19 14:45:20;;;;;;;;;;;;;;;;;;5035894;28;19954;-61
2023/05/19 14:47:46;;;;;;;;;;;;;;;;;;5018102;28;19909;-60
2023/05/19 14:50:12;;;;;;;;;;;;;;;;;;5037054;28;19920;-60
2023/05/19 14:52:38;;;;;;;;;;;;;;;;;;5039847;28;19913;-58
2023/05/19 14:55:04;;;;;;;;;;;;;;;;;;5036232;28;20332;-60
2023/05/19 14:57:30;;;;;;;;;;;;;;;;;;5040018;28;19948;-60
2023/05/19 14:59:56;;;;;;;;;;;;;;;;;;5016944;28;20023;-60
2023/05/19 15:02:22;;;;;;;;;;;;;;;;;;5043445;28;20027;-60
2023/05/19 15:04:48;;;;;;;;;;;;;;;;;;5045269;28;19912;-61
2023/05/19 15:07:15;;;;;;;;;;;;;;;;;;5046417;28;20307;-62
2023/05/19 15:09:41;;;;;;;;;;;;;;;;;;5045653;28;19909;-61
2023/05/19 15:12:07;;;;;;;;;;;;;;;;;;5044240;28;19932;-61
2023/05/19 15:14:33;;;;;;;;;;;;;;;;;;5046749;28;20290;-61
2023/05/19 15:16:59;;;;;;;;;;;;;;;;;;5045073;28;20054;-60
2023/05/19 15:19:25;;;;;;;;;;;;;;;;;;5046136;28;20399;-61
2023/05/19 15:21:51;;;;;;;;;;;;;;;;;;5045950;28;20262;-61
2023/05/19 15:24:18;;;;;;;;;;;;;;;;;;5047394;28;19970;-63
2023/05/19 15:26:44;;;;;;;;;;;;;;;;;;5040151;28;19916;-62
2023/05/19 15:29:10;;;;;;;;;;;;;;;;;;5025403;28;19916;-61
2023/05/19 15:31:36;;;;;;;;;;;;;;;;;;5041476;28;20003;-62
2023/05/19 15:34:02;;;;;;;;;;;;;;;;;;5039803;28;20471;-60
2023/05/19 15:36:28;;;;;;;;;;;;;;;;;;5044946;28;19917;-60
2023/05/19 15:38:54;;;;;;;;;;;;;;;;;;5042504;28;20322;-60
2023/05/19 15:41:20;;;;;;;;;;;;;;;;;;5043230;28;19927;-60
2023/05/19 15:43:46;;;;;;;;;;;;;;;;;;5046801;28;20022;-61
2023/05/19 15:46:14;;;;;;;;;;;;;;;;;;5036785;28;20782;-62
2023/05/19 15:48:40;;;;;;;;;;;;;;;;;;5044497;28;19908;-61
2023/05/19 15:51:07;;;;;;;;;;;;;;;;;;5041063;28;19939;-62
2023/05/19 15:53:33;;;;;;;;;;;;;;;;;;5045703;28;20015;-58
2023/05/19 15:55:59;;;;;;;;;;;;;;;;;;5043502;28;19912;-58
2023/05/19 15:58:25;;;;;;;;;;;;;;;;;;5045779;28;19928;-58
2023/05/19 16:00:51;;;;;;;;;;;;;;;;;;5041122;28;20352;-57
2023/05/19 16:03:17;;;;;;;;;;;;;;;;;;5041743;28;20455;-58
2023/05/19 16:05:44;;;;;;;;;;;;;;;;;;5021505;28;19921;-62
2023/05/19 16:08:10;;;;;;;;;;;;;;;;;;5040818;28;19909;-62
2023/05/19 16:10:36;;;;;;;;;;;;;;;;;;5041269;28;19966;-59
2023/05/19 16:13:02;;;;;;;;;;;;;;;;;;5040560;28;19909;-60
2023/05/19 16:15:28;;;;;;;;;;;;;;;;;;5041852;28;20464;-59
2023/05/19 16:17:54;;;;;;;;;;;;;;;;;;5035247;28;19929;-60
2023/05/19 16:20:25;;;;;;;;;;;;;;;;;;5044999;28;19999;-60
2023/05/19 16:22:51;;;;;;;;;;;;;;;;;;5043298;28;20393;-60
2023/05/19 16:25:18;;;;;;;;;;;;;;;;;;5041865;28;19916;-60
2023/05/19 16:27:44;;;;;;;;;;;;;;;;;;5043231;28;19921;-60
2023/05/19 16:30:10;;;;;;;;;;;;;;;;;;5042426;28;19912;-60
2023/05/19 16:32:36;;;;;;;;;;;;;;;;;;5032101;28;19920;-60
2023/05/19 16:35:02;;;;;;;;;;;;;;;;;;5035306;28;19916;-60
2023/05/19 16:37:29;;;;;;;;;;;;;;;;;;5054409;28;20548;-60
2023/05/19 16:39:55;;;;;;;;;;;;;;;;;;5048602;28;20340;-61
2023/05/19 16:42:21;;;;;;;;;;;;;;;;;;5038473;28;19917;-61
2023/05/19 16:44:47;;;;;;;;;;;;;;;;;;5048355;28;19965;-61
2023/05/19 16:47:13;;;;;;;;;;;;;;;;;;5039796;28;20280;-61
2023/05/19 16:49:39;;;;;;;;;;;;;;;;;;5046197;28;19935;-60
2023/05/19 16:52:06;;;;;;;;;;;;;;;;;;5030795;28;19915;-61
2023/05/19 16:54:32;;;;;;;;;;;;;;;;;;5040765;28;19916;-61
2023/05/19 16:56:58;;;;;;;;;;;;;;;;;;5043798;28;19909;-61
2023/05/19 16:59:24;;;;;;;;;;;;;;;;;;5046046;28;20007;-60
2023/05/19 17:01:51;;;;;;;;;;;;;;;;;;5027576;28;19913;-62
2023/05/19 17:04:17;;;;;;;;;;;;;;;;;;5044473;28;19999;-61
2023/05/19 17:06:44;;;;;;;;;;;;;;;;;;5047791;28;20011;-62
2023/05/19 17:09:11;;;;;;;;;;;;;;;;;;5047081;28;19962;-61
2023/05/19 17:11:37;;;;;;;;;;;;;;;;;;5045344;28;19955;-62
2023/05/19 17:14:06;;;;;;;;;;;;;;;;;;5043884;28;20640;-63
2023/05/19 17:16:32;;;;;;;;;;;;;;;;;;5046232;28;19952;-64
2023/05/19 17:18:59;;;;;;;;;;;;;;;;;;5046174;28;20891;-61
2023/05/19 17:21:25;;;;;;;;;;;;;;;;;;5046251;28;19943;-60
2023/05/19 17:23:51;;;;;;;;;;;;;;;;;;5043025;28;19916;-61
2023/05/19 17:26:17;;;;;;;;;;;;;;;;;;5042887;28;20007;-60
2023/05/19 17:28:43;;;;;;;;;;;;;;;;;;5048731;28;19985;-60
2023/05/19 17:31:10;;;;;;;;;;;;;;;;;;5045730;28;19908;-61
2023/05/19 17:33:36;;;;;;;;;;;;;;;;;;5047324;28;20023;-59
2023/05/19 17:36:02;;;;;;;;;;;;;;;;;;5043273;28;19995;-58
2023/05/19 17:38:28;;;;;;;;;;;;;;;;;;5027759;28;19916;-58
2023/05/19 17:40:54;;;;;;;;;;;;;;;;;;5043500;28;19912;-58
2023/05/19 17:43:20;;;;;;;;;;;;;;;;;;5039370;28;19913;-57
2023/05/19 17:45:46;;;;;;;;;;;;;;;;;;5044376;28;20401;-58
2023/05/19 17:48:12;;;;;;;;;;;;;;;;;;5048278;28;20285;-57
2023/05/19 17:50:38;;;;;;;;;;;;;;;;;;5046878;28;20423;-57
2023/05/19 17:53:04;;;;;;;;;;;;;;;;;;5048258;28;19916;-57
2023/05/19 17:55:30;;;;;;;;;;;;;;;;;;5048542;28;19912;-57
2023/05/19 17:57:56;;;;;;;;;;;;;;;;;;5030062;28;19982;-58
2023/05/19 18:00:23;;;;;;;;;;;;;;;;;;5030146;28;19916;-58